sensor_id;sensor_type;location;lat;lon;timestamp;pressure;altitude;pressure_sealevel;temperature;humidity
74268;BME280;62638;51.362;12.472;2023-05-07T00:00:11;100521.09;;;9.09;100.00
74268;BME280;62638;51.362;12.472;2023-05-07T00:02:40;100510.41;;;9.09;100.00
74268;BME280;62638;51.362;12.472;2023-05-07T00:05:06;100520.25;;;9.08;100.00
74268;BME280;62638;51.362;12.472;2023-05-07T00:07:31;100518.94;;;9.03;100.00
74268;BME280;62638;51.362;12.472;2023-05-07T00:09:56;100519.78;;;9.03;100.00
74268;BME280;62638;51.362;12.472;2023-05-07T00:12:22;100515.88;;;9.07;100.00
74268;BME280;62638;51.362;12.472;2023-05-07T00:14:47;100505.91;;;9.09;100.00
74268;BME280;62638;51.362;12.472;2023-05-07T00:17:12;100516.59;;;9.09;100.00
74268;BME280;62638;51.362;12.472;2023-05-07T00:19:38;100516.03;;;9.06;100.00
74268;BME280;62638;51.362;12.472;2023-05-07T00:22:03;100501.09;;;9.03;100.00
74268;BME280;62638;51.362;12.472;2023-05-07T00:24:28;100516.84;;;9.06;100.00
74268;BME280;62638;51.362;12.472;2023-05-07T00:26:53;100507.53;;;9.01;100.00
74268;BME280;62638;51.362;12.472;2023-05-07T00:29:19;100516.13;;;9.04;100.00
74268;BME280;62638;51.362;12.472;2023-05-07T00:31:44;100515.28;;;9.04;100.00
74268;BME280;62638;51.362;12.472;2023-05-07T00:34:09;100517.22;;;9.02;100.00
74268;BME280;62638;51.362;12.472;2023-05-07T00:36:35;100516.78;;;8.97;100.00
74268;BME280;62638;51.362;12.472;2023-05-07T00:39:01;100515.56;;;9.01;100.00
74268;BME280;62638;51.362;12.472;2023-05-07T00:41:28;100515.56;;;9.01;100.00
74268;BME280;62638;51.362;12.472;2023-05-07T00:43:55;100512.25;;;8.97;100.00
74268;BME280;62638;51.362;12.472;2023-05-07T00:46:21;100518.94;;;9.03;100.00
74268;BME280;62638;51.362;12.472;2023-05-07T00:48:47;100513.34;;;9.06;100.00
74268;BME280;62638;51.362;12.472;2023-05-07T00:51:13;100526.09;;;9.02;100.00
74268;BME280;62638;51.362;12.472;2023-05-07T00:53:38;100521.88;;;9.00;100.00
74268;BME280;62638;51.362;12.472;2023-05-07T00:56:04;100516.16;;;8.93;100.00
74268;BME280;62638;51.362;12.472;2023-05-07T00:58:32;100521.38;;;8.95;100.00
74268;BME280;62638;51.362;12.472;2023-05-07T01:00:57;100525.88;;;8.94;100.00
74268;BME280;62638;51.362;12.472;2023-05-07T01:03:23;100528.19;;;8.99;100.00
74268;BME280;62638;51.362;12.472;2023-05-07T01:05:49;100513.38;;;8.95;100.00
74268;BME280;62638;51.362;12.472;2023-05-07T01:08:15;100521.75;;;9.01;100.00
74268;BME280;62638;51.362;12.472;2023-05-07T01:10:42;100534.25;;;9.01;100.00
74268;BME280;62638;51.362;12.472;2023-05-07T01:13:09;100537.88;;;9.00;100.00
74268;BME280;62638;51.362;12.472;2023-05-07T01:15:35;100541.41;;;9.00;100.00
74268;BME280;62638;51.362;12.472;2023-05-07T01:18:00;100538.84;;;8.99;100.00
74268;BME280;62638;51.362;12.472;2023-05-07T01:20:27;100541.53;;;8.99;100.00
74268;BME280;62638;51.362;12.472;2023-05-07T01:22:53;100536.78;;;9.02;100.00
74268;BME280;62638;51.362;12.472;2023-05-07T01:25:19;100518.47;;;8.98;100.00
74268;BME280;62638;51.362;12.472;2023-05-07T01:27:44;100511.94;;;8.91;100.00
74268;BME280;62638;51.362;12.472;2023-05-07T01:30:10;100507.19;;;8.94;100.00
74268;BME280;62638;51.362;12.472;2023-05-07T01:32:45;100511.28;;;8.98;100.00
74268;BME280;62638;51.362;12.472;2023-05-07T01:35:17;100518.47;;;8.98;100.00
74268;BME280;62638;51.362;12.472;2023-05-07T01:37:43;100516.41;;;9.01;100.00
74268;BME280;62638;51.362;12.472;2023-05-07T01:40:10;100515.94;;;8.96;100.00
74268;BME280;62638;51.362;12.472;2023-05-07T01:42:36;100524.31;;;8.92;100.00
74268;BME280;62638;51.362;12.472;2023-05-07T01:45:01;100524.31;;;8.92;100.00
74268;BME280;62638;51.362;12.472;2023-05-07T01:47:27;100531.97;;;8.85;100.00
74268;BME280;62638;51.362;12.472;2023-05-07T01:49:57;100534.31;;;8.79;100.00
74268;BME280;62638;51.362;12.472;2023-05-07T01:52:22;100528.34;;;8.86;100.00
74268;BME280;62638;51.362;12.472;2023-05-07T01:54:47;100532.34;;;8.92;100.00
74268;BME280;62638;51.362;12.472;2023-05-07T01:57:13;100527.97;;;8.91;100.00
74268;BME280;62638;51.362;12.472;2023-05-07T01:59:38;100525.56;;;8.88;100.00
74268;BME280;62638;51.362;12.472;2023-05-07T02:02:03;100523.25;;;8.83;100.00
74268;BME280;62638;51.362;12.472;2023-05-07T02:04:28;100522.53;;;8.81;100.00
74268;BME280;62638;51.362;12.472;2023-05-07T02:06:54;100525.34;;;8.80;100.00
74268;BME280;62638;51.362;12.472;2023-05-07T02:09:19;100530.69;;;8.80;100.00
74268;BME280;62638;51.362;12.472;2023-05-07T02:11:44;100524.22;;;8.82;100.00
74268;BME280;62638;51.362;12.472;2023-05-07T02:14:10;100524.91;;;8.95;100.00
74268;BME280;62638;51.362;12.472;2023-05-07T02:16:35;100533.91;;;8.94;100.00
74268;BME280;62638;51.362;12.472;2023-05-07T02:19:00;100537.78;;;8.90;100.00
74268;BME280;62638;51.362;12.472;2023-05-07T02:21:26;100534.41;;;8.88;100.00
74268;BME280;62638;51.362;12.472;2023-05-07T02:23:51;100527.13;;;8.90;100.00
74268;BME280;62638;51.362;12.472;2023-05-07T02:26:16;100526.53;;;8.87;100.00
74268;BME280;62638;51.362;12.472;2023-05-07T02:28:41;100524.69;;;8.87;100.00
74268;BME280;62638;51.362;12.472;2023-05-07T02:31:07;100530.53;;;8.81;100.00
74268;BME280;62638;51.362;12.472;2023-05-07T02:33:32;100527.63;;;8.84;100.00
74268;BME280;62638;51.362;12.472;2023-05-07T02:36:08;100527.38;;;8.87;100.00
74268;BME280;62638;51.362;12.472;2023-05-07T02:38:34;100524.97;;;8.84;100.00
74268;BME280;62638;51.362;12.472;2023-05-07T02:40:59;100527.75;;;8.83;100.00
74268;BME280;62638;51.362;12.472;2023-05-07T02:43:24;100525.34;;;8.80;100.00
74268;BME280;62638;51.362;12.472;2023-05-07T02:46:06;100527.22;;;8.89;100.00
74268;BME280;62638;51.362;12.472;2023-05-07T02:48:32;100539.13;;;8.96;100.00
74268;BME280;62638;51.362;12.472;2023-05-07T02:50:58;100549.44;;;9.00;100.00
74268;BME280;62638;51.362;12.472;2023-05-07T02:53:23;100539.38;;;8.93;100.00
74268;BME280;62638;51.362;12.472;2023-05-07T02:55:52;100552.84;;;8.91;100.00
74268;BME280;62638;51.362;12.472;2023-05-07T02:58:17;100546.28;;;8.95;100.00
74268;BME280;62638;51.362;12.472;2023-05-07T03:00:42;100543.66;;;8.84;100.00
74268;BME280;62638;51.362;12.472;2023-05-07T03:03:07;100534.53;;;8.87;100.00
74268;BME280;62638;51.362;12.472;2023-05-07T03:05:33;100537.69;;;8.81;100.00
74268;BME280;62638;51.362;12.472;2023-05-07T03:07:58;100537.78;;;8.90;100.00
74268;BME280;62638;51.362;12.472;2023-05-07T03:10:23;100539.75;;;8.88;100.00
74268;BME280;62638;51.362;12.472;2023-05-07T03:12:48;100533.31;;;8.91;100.00
74268;BME280;62638;51.362;12.472;2023-05-07T03:15:13;100544.47;;;8.96;100.00
74268;BME280;62638;51.362;12.472;2023-05-07T03:17:39;100536.72;;;8.93;100.00
74268;BME280;62638;51.362;12.472;2023-05-07T03:20:05;100543.88;;;8.92;100.00
74268;BME280;62638;51.362;12.472;2023-05-07T03:22:30;100529.53;;;8.93;100.00
74268;BME280;62638;51.362;12.472;2023-05-07T03:24:55;100540.22;;;8.93;100.00
74268;BME280;62638;51.362;12.472;2023-05-07T03:27:21;100534.41;;;8.88;100.00
74268;BME280;62638;51.362;12.472;2023-05-07T03:29:46;100535.88;;;8.92;100.00
74268;BME280;62638;51.362;12.472;2023-05-07T03:32:11;100539.44;;;9.02;100.00
74268;BME280;62638;51.362;12.472;2023-05-07T03:34:36;100534.75;;;8.95;100.00
74268;BME280;62638;51.362;12.472;2023-05-07T03:37:02;100541.06;;;8.94;100.00
74268;BME280;62638;51.362;12.472;2023-05-07T03:39:27;100549.81;;;8.96;100.00
74268;BME280;62638;51.362;12.472;2023-05-07T03:41:52;100550.13;;;9.02;100.00
74268;BME280;62638;51.362;12.472;2023-05-07T03:44:18;100549.06;;;8.94;100.00
74268;BME280;62638;51.362;12.472;2023-05-07T03:46:43;100543.34;;;8.98;100.00
74268;BME280;62638;51.362;12.472;2023-05-07T03:49:08;100543.88;;;8.92;100.00
74268;BME280;62638;51.362;12.472;2023-05-07T03:51:33;100549.66;;;8.97;100.00
74268;BME280;62638;51.362;12.472;2023-05-07T03:53:59;100554.88;;;8.99;100.00
74268;BME280;62638;51.362;12.472;2023-05-07T03:56:24;100565.09;;;9.05;100.00
74268;BME280;62638;51.362;12.472;2023-05-07T03:58:51;100565.47;;;9.00;100.00
74268;BME280;62638;51.362;12.472;2023-05-07T04:01:17;100568.34;;;8.97;100.00
74268;BME280;62638;51.362;12.472;2023-05-07T04:03:42;100574.19;;;9.02;100.00
74268;BME280;62638;51.362;12.472;2023-05-07T04:06:07;100572.50;;;9.01;100.00
74268;BME280;62638;51.362;12.472;2023-05-07T04:08:33;100570.28;;;9.06;100.00
74268;BME280;62638;51.362;12.472;2023-05-07T04:10:58;100573.94;;;9.05;100.00
74268;BME280;62638;51.362;12.472;2023-05-07T04:13:24;100573.22;;;9.03;100.00
74268;BME280;62638;51.362;12.472;2023-05-07T04:15:50;100580.25;;;9.04;100.00
74268;BME280;62638;51.362;12.472;2023-05-07T04:18:16;100583.19;;;9.01;100.00
74268;BME280;62638;51.362;12.472;2023-05-07T04:20:41;100579.41;;;9.04;100.00
74268;BME280;62638;51.362;12.472;2023-05-07T04:23:07;100578.91;;;9.10;100.00
74268;BME280;62638;51.362;12.472;2023-05-07T04:25:32;100579.03;;;9.08;100.00
74268;BME280;62638;51.362;12.472;2023-05-07T04:27:58;100572.94;;;9.06;100.00
74268;BME280;62638;51.362;12.472;2023-05-07T04:30:23;100575.41;;;8.98;100.00
74268;BME280;62638;51.362;12.472;2023-05-07T04:32:48;100575.88;;;9.03;100.00
74268;BME280;62638;51.362;12.472;2023-05-07T04:35:14;100571.97;;;9.07;100.00
74268;BME280;62638;51.362;12.472;2023-05-07T04:37:39;100607.09;;;9.03;100.00
74268;BME280;62638;51.362;12.472;2023-05-07T04:40:05;100619.97;;;9.09;100.00
74268;BME280;62638;51.362;12.472;2023-05-07T04:42:31;100619.91;;;9.20;100.00
74268;BME280;62638;51.362;12.472;2023-05-07T04:44:56;100621.72;;;9.20;100.00
74268;BME280;62638;51.362;12.472;2023-05-07T04:47:21;100619.59;;;9.14;100.00
74268;BME280;62638;51.362;12.472;2023-05-07T04:49:46;100622.97;;;9.16;100.00
74268;BME280;62638;51.362;12.472;2023-05-07T04:52:12;100626.88;;;9.11;100.00
74268;BME280;62638;51.362;12.472;2023-05-07T04:54:37;100629.97;;;9.28;100.00
74268;BME280;62638;51.362;12.472;2023-05-07T04:57:05;100627.06;;;9.31;100.00
74268;BME280;62638;51.362;12.472;2023-05-07T04:59:32;100626.59;;;9.26;100.00
74268;BME280;62638;51.362;12.472;2023-05-07T05:01:57;100640.22;;;9.23;100.00
74268;BME280;62638;51.362;12.472;2023-05-07T05:04:22;100644.81;;;9.32;100.00
74268;BME280;62638;51.362;12.472;2023-05-07T05:06:47;100647.00;;;9.27;100.00
74268;BME280;62638;51.362;12.472;2023-05-07T05:09:13;100643.97;;;9.31;100.00
74268;BME280;62638;51.362;12.472;2023-05-07T05:11:39;100644.66;;;9.44;100.00
74268;BME280;62638;51.362;12.472;2023-05-07T05:14:04;100651.81;;;9.44;100.00
74268;BME280;62638;51.362;12.472;2023-05-07T05:16:29;100642.56;;;9.37;100.00
74268;BME280;62638;51.362;12.472;2023-05-07T05:18:55;100646.53;;;9.22;100.00
74268;BME280;62638;51.362;12.472;2023-05-07T05:21:20;100644.34;;;9.27;100.00
74268;BME280;62638;51.362;12.472;2023-05-07T05:23:45;100648.31;;;9.32;100.00
74268;BME280;62638;51.362;12.472;2023-05-07T05:26:11;100648.44;;;9.31;100.00
74268;BME280;62638;51.362;12.472;2023-05-07T05:28:36;100647.88;;;9.16;100.00
74268;BME280;62638;51.362;12.472;2023-05-07T05:31:01;100653.06;;;9.29;100.00
74268;BME280;62638;51.362;12.472;2023-05-07T05:33:27;100649.03;;;9.34;100.00
74268;BME280;62638;51.362;12.472;2023-05-07T05:35:53;100645.63;;;9.32;100.00
74268;BME280;62638;51.362;12.472;2023-05-07T05:38:19;100632.63;;;9.39;100.00
74268;BME280;62638;51.362;12.472;2023-05-07T05:40:46;100642.09;;;9.43;100.00
74268;BME280;62638;51.362;12.472;2023-05-07T05:43:11;100650.38;;;9.40;100.00
74268;BME280;62638;51.362;12.472;2023-05-07T05:45:36;100639.03;;;9.47;100.00
74268;BME280;62638;51.362;12.472;2023-05-07T05:48:01;100657.00;;;9.56;100.00
74268;BME280;62638;51.362;12.472;2023-05-07T05:50:27;100656.50;;;9.51;100.00
74268;BME280;62638;51.362;12.472;2023-05-07T05:52:52;100668.19;;;9.50;100.00
74268;BME280;62638;51.362;12.472;2023-05-07T05:55:17;100671.22;;;9.57;100.00
74268;BME280;62638;51.362;12.472;2023-05-07T05:57:43;100663.09;;;9.47;100.00
74268;BME280;62638;51.362;12.472;2023-05-07T06:00:10;100675.59;;;9.47;100.00
74268;BME280;62638;51.362;12.472;2023-05-07T06:02:36;100682.78;;;9.46;100.00
74268;BME280;62638;51.362;12.472;2023-05-07T06:05:02;100681.81;;;9.47;100.00
74268;BME280;62638;51.362;12.472;2023-05-07T06:07:28;100675.13;;;9.42;99.90
74268;BME280;62638;51.362;12.472;2023-05-07T06:09:53;100683.38;;;9.50;99.18
74268;BME280;62638;51.362;12.472;2023-05-07T06:12:18;100672.56;;;9.51;99.48
74268;BME280;62638;51.362;12.472;2023-05-07T06:14:44;100674.69;;;9.69;99.18
74268;BME280;62638;51.362;12.472;2023-05-07T06:17:09;100677.63;;;9.86;98.66
74268;BME280;62638;51.362;12.472;2023-05-07T06:19:34;100666.22;;;9.84;98.76
74268;BME280;62638;51.362;12.472;2023-05-07T06:22:00;100672.97;;;9.68;97.94
74268;BME280;62638;51.362;12.472;2023-05-07T06:24:26;100677.63;;;9.86;99.23
74268;BME280;62638;51.362;12.472;2023-05-07T06:26:52;100678.81;;;10.14;97.95
74268;BME280;62638;51.362;12.472;2023-05-07T06:29:17;100683.84;;;10.08;96.11
74268;BME280;62638;51.362;12.472;2023-05-07T06:31:43;100689.00;;;9.99;96.71
74268;BME280;62638;51.362;12.472;2023-05-07T06:34:08;100681.09;;;9.98;96.65
74268;BME280;62638;51.362;12.472;2023-05-07T06:36:33;100676.41;;;9.90;96.15
74268;BME280;62638;51.362;12.472;2023-05-07T06:38:59;100678.56;;;9.96;96.08
74268;BME280;62638;51.362;12.472;2023-05-07T06:41:24;100684.06;;;10.16;96.23
74268;BME280;62638;51.362;12.472;2023-05-07T06:43:50;100683.22;;;10.15;96.85
74268;BME280;62638;51.362;12.472;2023-05-07T06:46:16;100692.38;;;10.01;95.74
74268;BME280;62638;51.362;12.472;2023-05-07T06:48:41;100696.41;;;9.75;95.96
74268;BME280;62638;51.362;12.472;2023-05-07T06:51:06;100704.59;;;9.94;95.91
74268;BME280;62638;51.362;12.472;2023-05-07T06:53:32;100705.47;;;9.84;95.15
74268;BME280;62638;51.362;12.472;2023-05-07T06:55:57;100712.41;;;9.86;94.75
74268;BME280;62638;51.362;12.472;2023-05-07T06:58:22;100708.06;;;10.06;94.97
74268;BME280;62638;51.362;12.472;2023-05-07T07:00:48;100708.41;;;10.13;94.61
74268;BME280;62638;51.362;12.472;2023-05-07T07:03:13;100721.25;;;10.30;92.51
74268;BME280;62638;51.362;12.472;2023-05-07T07:05:41;100722.13;;;10.40;91.53
74268;BME280;62638;51.362;12.472;2023-05-07T07:08:06;100722.84;;;10.63;92.12
74268;BME280;62638;51.362;12.472;2023-05-07T07:10:32;100719.81;;;10.77;91.07
74268;BME280;62638;51.362;12.472;2023-05-07T07:12:57;100712.28;;;10.61;90.39
74268;BME280;62638;51.362;12.472;2023-05-07T07:15:22;100712.81;;;10.85;89.17
74268;BME280;62638;51.362;12.472;2023-05-07T07:17:49;100708.91;;;10.99;89.40
74268;BME280;62638;51.362;12.472;2023-05-07T07:20:15;100715.19;;;10.58;89.52
74268;BME280;62638;51.362;12.472;2023-05-07T07:22:41;100713.38;;;10.59;89.92
74268;BME280;62638;51.362;12.472;2023-05-07T07:25:06;100712.88;;;10.44;89.76
74268;BME280;62638;51.362;12.472;2023-05-07T07:27:32;100708.09;;;10.48;90.09
74268;BME280;62638;51.362;12.472;2023-05-07T07:29:57;100708.56;;;10.53;88.88
74268;BME280;62638;51.362;12.472;2023-05-07T07:32:22;100710.34;;;11.03;88.52
74268;BME280;62638;51.362;12.472;2023-05-07T07:34:47;100708.69;;;10.81;88.23
74268;BME280;62638;51.362;12.472;2023-05-07T07:37:13;100707.97;;;10.79;86.55
74268;BME280;62638;51.362;12.472;2023-05-07T07:39:38;100706.19;;;10.89;87.76
74268;BME280;62638;51.362;12.472;2023-05-07T07:42:03;100703.97;;;10.95;87.61
74268;BME280;62638;51.362;12.472;2023-05-07T07:44:29;100714.28;;;10.99;87.48
74268;BME280;62638;51.362;12.472;2023-05-07T07:46:54;100716.09;;;10.99;87.93
74268;BME280;62638;51.362;12.472;2023-05-07T07:49:19;100706.81;;;10.72;87.22
74268;BME280;62638;51.362;12.472;2023-05-07T07:51:45;100712.53;;;10.58;87.88
74268;BME280;62638;51.362;12.472;2023-05-07T07:54:10;100709.47;;;10.42;88.17
74268;BME280;62638;51.362;12.472;2023-05-07T07:56:35;100724.56;;;10.43;89.55
74268;BME280;62638;51.362;12.472;2023-05-07T07:59:01;100726.59;;;10.30;88.02
74268;BME280;62638;51.362;12.472;2023-05-07T08:01:26;100730.38;;;10.48;88.16
74268;BME280;62638;51.362;12.472;2023-05-07T08:03:52;100733.97;;;10.37;87.27
74268;BME280;62638;51.362;12.472;2023-05-07T08:06:17;100736.97;;;10.65;86.97
74268;BME280;62638;51.362;12.472;2023-05-07T08:08:43;100737.19;;;10.82;85.16
74268;BME280;62638;51.362;12.472;2023-05-07T08:11:08;100730.72;;;10.85;83.90
74268;BME280;62638;51.362;12.472;2023-05-07T08:13:34;100736.56;;;10.69;84.37
74268;BME280;62638;51.362;12.472;2023-05-07T08:15:59;100736.81;;;10.66;85.04
74268;BME280;62638;51.362;12.472;2023-05-07T08:18:25;100739.91;;;10.41;85.86
74268;BME280;62638;51.362;12.472;2023-05-07T08:20:50;100747.41;;;10.47;85.57
74268;BME280;62638;51.362;12.472;2023-05-07T08:23:15;100751.63;;;10.70;85.27
74268;BME280;62638;51.362;12.472;2023-05-07T08:25:41;100750.28;;;10.55;85.71
74268;BME280;62638;51.362;12.472;2023-05-07T08:28:07;100740.88;;;10.61;85.99
74268;BME280;62638;51.362;12.472;2023-05-07T08:30:33;100756.56;;;10.65;84.41
74268;BME280;62638;51.362;12.472;2023-05-07T08:33:00;100756.03;;;10.71;85.43
74268;BME280;62638;51.362;12.472;2023-05-07T08:35:25;100758.19;;;10.77;85.16
74268;BME280;62638;51.362;12.472;2023-05-07T08:37:52;100751.63;;;10.70;83.65
74268;BME280;62638;51.362;12.472;2023-05-07T08:40:17;100762.88;;;10.85;84.72
74268;BME280;62638;51.362;12.472;2023-05-07T08:42:43;100756.06;;;10.81;83.80
74268;BME280;62638;51.362;12.472;2023-05-07T08:45:10;100766.22;;;10.77;83.80
74268;BME280;62638;51.362;12.472;2023-05-07T08:47:42;100760.28;;;10.74;83.83
74268;BME280;62638;51.362;12.472;2023-05-07T08:50:08;100767.16;;;10.97;83.70
74268;BME280;62638;51.362;12.472;2023-05-07T08:52:35;100769.13;;;10.95;83.97
74268;BME280;62638;51.362;12.472;2023-05-07T08:55:02;100764.50;;;10.76;83.31
74268;BME280;62638;51.362;12.472;2023-05-07T08:57:27;100765.16;;;10.89;83.99
74268;BME280;62638;51.362;12.472;2023-05-07T08:59:53;100772.34;;;11.19;83.27
74268;BME280;62638;51.362;12.472;2023-05-07T09:02:18;100774.97;;;11.10;84.08
74268;BME280;62638;51.362;12.472;2023-05-07T09:04:43;100779.63;;;11.08;83.43
74268;BME280;62638;51.362;12.472;2023-05-07T09:07:09;100775.53;;;11.04;82.09
74268;BME280;62638;51.362;12.472;2023-05-07T09:09:34;100764.47;;;10.97;82.55
74268;BME280;62638;51.362;12.472;2023-05-07T09:11:59;100777.94;;;11.07;83.61
74268;BME280;62638;51.362;12.472;2023-05-07T09:14:25;100768.13;;;10.96;83.39
74268;BME280;62638;51.362;12.472;2023-05-07T09:16:54;100772.75;;;11.15;83.41
74268;BME280;62638;51.362;12.472;2023-05-07T09:19:23;100777.41;;;11.22;82.33
74268;BME280;62638;51.362;12.472;2023-05-07T09:21:49;100769.69;;;11.29;82.84
74268;BME280;62638;51.362;12.472;2023-05-07T09:24:15;100780.78;;;11.15;82.47
74268;BME280;62638;51.362;12.472;2023-05-07T09:26:41;100788.13;;;11.13;83.81
74268;BME280;62638;51.362;12.472;2023-05-07T09:29:07;100783.59;;;11.13;83.48
74268;BME280;62638;51.362;12.472;2023-05-07T09:31:36;100778.47;;;11.41;83.50
74268;BME280;62638;51.362;12.472;2023-05-07T09:34:04;100781.00;;;11.02;82.91
74268;BME280;62638;51.362;12.472;2023-05-07T09:36:31;100790.41;;;10.97;83.33
74268;BME280;62638;51.362;12.472;2023-05-07T09:38:59;100780.72;;;10.96;84.03
74268;BME280;62638;51.362;12.472;2023-05-07T09:41:26;100787.28;;;10.91;84.12
74268;BME280;62638;51.362;12.472;2023-05-07T09:43:54;100784.09;;;10.98;83.85
74268;BME280;62638;51.362;12.472;2023-05-07T09:46:25;100789.56;;;10.96;83.54
74268;BME280;62638;51.362;12.472;2023-05-07T09:48:53;100791.34;;;11.07;84.10
74268;BME280;62638;51.362;12.472;2023-05-07T09:51:25;100785.88;;;11.18;83.21
74268;BME280;62638;51.362;12.472;2023-05-07T09:53:53;100778.44;;;11.31;81.90
74268;BME280;62638;51.362;12.472;2023-05-07T09:56:19;100787.16;;;11.23;83.44
74268;BME280;62638;51.362;12.472;2023-05-07T09:58:45;100791.69;;;11.23;83.25
74268;BME280;62638;51.362;12.472;2023-05-07T10:01:12;100788.94;;;11.13;82.95
74268;BME280;62638;51.362;12.472;2023-05-07T10:03:41;100776.34;;;11.34;82.44
74268;BME280;62638;51.362;12.472;2023-05-07T10:06:09;100779.19;;;11.43;81.76
74268;BME280;62638;51.362;12.472;2023-05-07T10:08:36;100779.28;;;11.31;82.12
74268;BME280;62638;51.362;12.472;2023-05-07T10:11:04;100782.38;;;11.17;83.62
74268;BME280;62638;51.362;12.472;2023-05-07T10:13:29;100773.47;;;11.26;83.65
74268;BME280;62638;51.362;12.472;2023-05-07T10:15:55;100786.88;;;11.17;83.36
74268;BME280;62638;51.362;12.472;2023-05-07T10:18:22;100789.28;;;11.20;83.10
74268;BME280;62638;51.362;12.472;2023-05-07T10:20:49;100796.34;;;11.21;84.15
74268;BME280;62638;51.362;12.472;2023-05-07T10:23:19;100782.69;;;11.33;82.73
74268;BME280;62638;51.362;12.472;2023-05-07T10:25:48;100785.38;;;11.73;80.39
74268;BME280;62638;51.362;12.472;2023-05-07T10:28:15;100768.50;;;11.62;80.04
74268;BME280;62638;51.362;12.472;2023-05-07T10:30:55;100793.28;;;11.75;81.27
74268;BME280;62638;51.362;12.472;2023-05-07T10:33:27;100780.63;;;11.47;81.32
74268;BME280;62638;51.362;12.472;2023-05-07T10:36:00;100795.53;;;11.39;82.29
74268;BME280;62638;51.362;12.472;2023-05-07T10:38:27;100789.09;;;11.12;83.91
74268;BME280;62638;51.362;12.472;2023-05-07T10:40:52;100796.88;;;11.15;83.63
74268;BME280;62638;51.362;12.472;2023-05-07T10:43:18;100795.47;;;11.51;84.13
74268;BME280;62638;51.362;12.472;2023-05-07T10:45:43;100798.44;;;11.57;83.96
74268;BME280;62638;51.362;12.472;2023-05-07T10:48:27;100800.22;;;11.37;82.68
74268;BME280;62638;51.362;12.472;2023-05-07T10:51:20;100789.56;;;11.66;83.12
74268;BME280;62638;51.362;12.472;2023-05-07T10:53:46;100799.50;;;11.75;81.16
74268;BME280;62638;51.362;12.472;2023-05-07T10:56:24;100795.16;;;11.94;82.52
74268;BME280;62638;51.362;12.472;2023-05-07T10:58:50;100794.75;;;12.17;80.03
74268;BME280;62638;51.362;12.472;2023-05-07T11:01:54;100797.44;;;12.08;80.57
74268;BME280;62638;51.362;12.472;2023-05-07T11:04:20;100794.44;;;11.92;80.15
74268;BME280;62638;51.362;12.472;2023-05-07T11:07:21;100797.81;;;11.84;81.87
74268;BME280;62638;51.362;12.472;2023-05-07T11:12:46;100796.59;;;12.07;80.53
74268;BME280;62638;51.362;12.472;2023-05-07T11:15:13;100798.00;;;12.11;79.12
74268;BME280;62638;51.362;12.472;2023-05-07T11:17:57;100793.16;;;11.96;78.79
74268;BME280;62638;51.362;12.472;2023-05-07T11:21:01;100797.28;;;12.00;78.64
74268;BME280;62638;51.362;12.472;2023-05-07T11:26:18;100804.63;;;11.98;79.45
74268;BME280;62638;51.362;12.472;2023-05-07T11:28:43;100791.78;;;12.11;79.51
74268;BME280;62638;51.362;12.472;2023-05-07T11:31:10;100793.19;;;12.34;79.29
74268;BME280;62638;51.362;12.472;2023-05-07T11:33:36;100789.50;;;12.35;78.99
74268;BME280;62638;51.362;12.472;2023-05-07T11:36:05;100801.41;;;12.23;77.75
74268;BME280;62638;51.362;12.472;2023-05-07T11:38:34;100796.16;;;11.93;78.39
74268;BME280;62638;51.362;12.472;2023-05-07T11:40:59;100799.13;;;12.09;78.06
74268;BME280;62638;51.362;12.472;2023-05-07T11:43:29;100789.66;;;12.05;77.70
74268;BME280;62638;51.362;12.472;2023-05-07T11:46:05;100792.63;;;12.21;76.95
74268;BME280;62638;51.362;12.472;2023-05-07T11:48:31;100794.31;;;12.22;76.67
74268;BME280;62638;51.362;12.472;2023-05-07T11:51:04;100806.34;;;12.37;77.20
74268;BME280;62638;51.362;12.472;2023-05-07T11:53:38;100801.53;;;12.41;75.72
74268;BME280;62638;51.362;12.472;2023-05-07T11:56:11;100812.72;;;12.46;76.33
74268;BME280;62638;51.362;12.472;2023-05-07T11:58:36;100798.44;;;12.07;77.16
74268;BME280;62638;51.362;12.472;2023-05-07T12:01:02;100803.09;;;12.24;76.58
74268;BME280;62638;51.362;12.472;2023-05-07T12:03:27;100804.94;;;12.33;76.51
74268;BME280;62638;51.362;12.472;2023-05-07T12:05:52;100804.34;;;12.58;75.63
74268;BME280;62638;51.362;12.472;2023-05-07T12:08:18;100809.13;;;12.64;73.76
74268;BME280;62638;51.362;12.472;2023-05-07T12:10:45;100810.34;;;12.99;74.53
74268;BME280;62638;51.362;12.472;2023-05-07T12:13:15;100810.75;;;13.13;73.48
74268;BME280;62638;51.362;12.472;2023-05-07T12:15:41;100805.25;;;13.15;72.44
74268;BME280;62638;51.362;12.472;2023-05-07T12:18:06;100802.75;;;12.94;72.50
74268;BME280;62638;51.362;12.472;2023-05-07T12:20:34;100802.88;;;12.93;72.98
74268;BME280;62638;51.362;12.472;2023-05-07T12:22:59;100801.78;;;12.76;75.50
74268;BME280;62638;51.362;12.472;2023-05-07T12:25:26;100806.06;;;12.59;75.43
74268;BME280;62638;51.362;12.472;2023-05-07T12:27:52;100794.59;;;12.57;75.77
74268;BME280;62638;51.362;12.472;2023-05-07T12:30:17;100801.69;;;12.30;76.41
74268;BME280;62638;51.362;12.472;2023-05-07T12:32:45;100795.31;;;12.31;75.96
74268;BME280;62638;51.362;12.472;2023-05-07T12:35:10;100796.13;;;12.69;76.88
74268;BME280;62638;51.362;12.472;2023-05-07T12:37:35;100802.19;;;12.81;72.14
74268;BME280;62638;51.362;12.472;2023-05-07T12:40:05;100800.88;;;12.95;72.88
74268;BME280;62638;51.362;12.472;2023-05-07T12:42:39;100787.00;;;13.46;71.02